Time;durP1;ratioP1;P1;durP2;ratioP2;P2;SDS_P1;SDS_P2;PMS_P1;PMS_P2;Temp;Humidity;BMP_temperature;BMP_pressure;BME280_temperature;BME280_humidity;BME280_pressure;Samples;Min_cycle;Max_cycle;Signal;HPM_P1;HPM_P2
2021/03/15 00:00:00;;;;;;;9.32;4.38;;;;;;;3.25;100.00;97104.94;5033982;28;20135;-77
2021/03/15 00:02:28;;;;;;;7.93;4.40;;;;;;;3.26;100.00;97106.53;5034496;28;20040;-77
2021/03/15 00:04:55;;;;;;;8.57;4.35;;;;;;;3.22;100.00;97097.47;5038695;28;20103;-78
2021/03/15 00:07:21;;;;;;;8.93;4.53;;;;;;;3.20;100.00;97104.97;5061890;28;20044;-77
2021/03/15 00:09:47;;;;;;;9.90;4.60;;;;;;;3.22;100.00;97102.81;5039478;28;20040;-78
2021/03/15 00:12:14;;;;;;;10.05;4.55;;;;;;;3.24;100.00;97091.84;5036198;28;20044;-77
2021/03/15 00:14:40;;;;;;;7.90;4.28;;;;;;;3.20;100.00;97091.59;5052782;28;20048;-78
2021/03/15 00:17:06;;;;;;;8.00;4.28;;;;;;;3.19;100.00;97091.88;5035618;28;20059;-79
2021/03/15 00:19:32;;;;;;;10.90;4.50;;;;;;;3.28;100.00;97088.31;5054625;28;20376;-78
2021/03/15 00:21:59;;;;;;;8.70;4.63;;;;;;;3.32;100.00;97086.69;5019890;28;20052;-79
2021/03/15 00:24:25;;;;;;;11.43;4.22;;;;;;;3.34;100.00;97081.84;5017801;28;20419;-77
2021/03/15 00:26:51;;;;;;;8.95;4.72;;;;;;;3.37;100.00;97086.63;5053398;28;20048;-78
2021/03/15 00:29:18;;;;;;;9.32;4.47;;;;;;;3.31;100.00;97082.41;5019594;28;20144;-79
2021/03/15 00:31:45;;;;;;;8.27;4.65;;;;;;;3.33;100.00;97092.84;5036216;28;20037;-79
2021/03/15 00:34:13;;;;;;;9.30;5.07;;;;;;;3.34;100.00;97087.19;5019820;28;20053;-79
2021/03/15 00:36:39;;;;;;;8.63;4.53;;;;;;;3.32;100.00;97088.56;5019750;28;20053;-79
2021/03/15 00:39:05;;;;;;;8.07;4.85;;;;;;;3.35;100.00;97080.78;5034859;28;20493;-78
2021/03/15 00:41:34;;;;;;;9.82;4.78;;;;;;;3.37;100.00;97081.28;5034924;28;20525;-78
2021/03/15 00:44:00;;;;;;;14.48;5.30;;;;;;;3.39;100.00;97075.66;5018173;28;20072;-78
2021/03/15 00:46:26;;;;;;;9.82;5.25;;;;;;;3.38;100.00;97080.19;5018132;28;20045;-79
2021/03/15 00:48:53;;;;;;;11.55;5.00;;;;;;;3.41;100.00;97076.16;5034333;28;20048;-77
2021/03/15 00:51:19;;;;;;;10.05;4.88;;;;;;;3.40;100.00;97080.72;5057214;28;20418;-79
2021/03/15 00:53:45;;;;;;;8.82;4.72;;;;;;;3.50;100.00;97077.16;5036923;28;20044;-78
2021/03/15 00:56:12;;;;;;;9.52;4.95;;;;;;;3.44;100.00;97072.91;5036117;28;20041;-78
2021/03/15 00:58:38;;;;;;;12.18;5.25;;;;;;;3.47;100.00;97072.34;5018216;28;20049;-78
2021/03/15 01:01:06;;;;;;;12.05;4.78;;;;;;;3.43;100.00;97066.75;5033431;28;20041;-78
2021/03/15 01:03:32;;;;;;;11.85;4.50;;;;;;;3.40;100.00;97059.31;5051331;28;20544;-78
2021/03/15 01:06:04;;;;;;;9.27;4.85;;;;;;;3.40;100.00;97061.19;5034150;28;20127;-78
2021/03/15 01:08:30;;;;;;;15.07;4.78;;;;;;;3.47;100.00;97061.66;5051106;28;20099;-77
2021/03/15 01:10:56;;;;;;;10.13;4.78;;;;;;;3.42;100.00;97062.50;5032615;28;20476;-78
2021/03/15 01:13:25;;;;;;;10.10;5.13;;;;;;;3.46;100.00;97060.84;5033729;28;20044;-77
2021/03/15 01:15:51;;;;;;;13.13;4.70;;;;;;;3.48;100.00;97064.06;5032750;28;20416;-77
2021/03/15 01:18:17;;;;;;;9.70;4.65;;;;;;;3.42;100.00;97061.72;5031298;28;20468;-77
2021/03/15 01:20:44;;;;;;;12.98;4.80;;;;;;;3.45;100.00;97067.31;5048572;28;20412;-77
2021/03/15 01:23:10;;;;;;;17.70;4.90;;;;;;;3.41;100.00;97060.91;5031283;28;20377;-77
2021/03/15 01:25:40;;;;;;;11.15;5.03;;;;;;;3.46;100.00;97065.44;5014219;28;20076;-76
2021/03/15 01:28:08;;;;;;;13.93;4.72;;;;;;;3.44;100.00;97059.53;5015296;28;20049;-77
2021/03/15 01:30:36;;;;;;;12.85;5.38;;;;;;;3.38;100.00;97061.47;5031049;28;20033;-78
2021/03/15 01:33:04;;;;;;;10.05;4.82;;;;;;;3.37;100.00;97051.88;5029627;28;20040;-76
2021/03/15 01:35:31;;;;;;;7.13;4.45;;;;;;;3.34;100.00;97055.09;5013670;28;20059;-77
2021/03/15 01:38:00;;;;;;;15.73;5.25;;;;;;;3.31;100.00;97052.19;5018893;28;20627;-78
2021/03/15 01:40:27;;;;;;;10.35;5.05;;;;;;;3.27;100.00;97056.50;5022652;28;20045;-77
2021/03/15 01:42:54;;;;;;;10.15;5.18;;;;;;;3.26;100.00;97047.69;5055441;28;20037;-78
2021/03/15 01:45:20;;;;;;;10.02;5.30;;;;;;;3.22;100.00;97041.31;5054712;28;20048;-78
2021/03/15 01:47:47;;;;;;;9.32;5.82;;;;;;;3.23;100.00;97032.19;5055023;28;20140;-78
2021/03/15 01:50:17;;;;;;;10.52;5.88;;;;;;;3.19;100.00;97041.88;5055677;28;20045;-77
2021/03/15 01:52:44;;;;;;;13.40;5.93;;;;;;;3.20;100.00;97026.63;5055704;28;20242;-77
2021/03/15 01:55:12;;;;;;;13.48;5.68;;;;;;;3.17;100.00;97023.41;5037510;28;20107;-78
2021/03/15 01:57:39;;;;;;;12.27;5.82;;;;;;;3.20;100.00;97026.63;5037269;28;20095;-78
2021/03/15 02:00:08;;;;;;;11.68;6.32;;;;;;;3.19;100.00;97014.34;5035933;28;20041;-78
2021/03/15 02:02:37;;;;;;;11.10;5.93;;;;;;;3.12;100.00;97009.31;5037427;28;20037;-79
2021/03/15 02:05:06;;;;;;;12.73;6.25;;;;;;;3.09;100.00;97008.03;5019954;28;20492;-78
2021/03/15 02:07:32;;;;;;;11.20;6.00;;;;;;;3.10;100.00;97011.47;5035902;28;20048;-77
2021/03/15 02:09:58;;;;;;;12.70;6.65;;;;;;;3.00;100.00;97016.91;5054675;28;20048;-77
2021/03/15 02:12:38;;;;;;;13.20;6.38;;;;;;;2.89;100.00;97018.09;5019430;28;20049;-76
2021/03/15 02:15:20;;;;;;;13.98;6.35;;;;;;;2.83;100.00;97008.53;5034568;28;20059;-76
2021/03/15 02:17:55;;;;;;;12.73;6.97;;;;;;;2.79;100.00;97002.13;5054235;28;20623;-78
2021/03/15 02:20:42;;;;;;;14.13;7.05;;;;;;;2.79;100.00;96994.91;5036761;28;20106;-78
2021/03/15 02:23:11;;;;;;;13.90;6.40;;;;;;;2.72;100.00;96994.44;5031980;28;20144;-78
2021/03/15 02:25:58;;;;;;;12.43;7.13;;;;;;;2.68;100.00;96996.09;5037978;28;20110;-78
2021/03/15 02:28:40;;;;;;;13.63;7.13;;;;;;;2.64;100.00;96992.38;5037388;28;20063;-78
2021/03/15 02:31:24;;;;;;;14.52;7.45;;;;;;;2.70;100.00;96993.13;5039222;28;20052;-78
2021/03/15 02:34:04;;;;;;;14.63;7.90;;;;;;;2.71;100.00;96989.38;5041379;28;20037;-78
2021/03/15 02:36:37;;;;;;;17.27;7.55;;;;;;;2.70;100.00;96979.75;5038032;28;20064;-78
2021/03/15 02:39:09;;;;;;;14.70;7.85;;;;;;;2.71;100.00;96990.16;5054629;28;20045;-78
2021/03/15 02:41:39;;;;;;;12.02;7.00;;;;;;;2.76;100.00;96973.31;5038021;28;20037;-78
2021/03/15 02:44:08;;;;;;;16.33;6.95;;;;;;;2.78;100.00;96976.50;5020214;28;20056;-77
2021/03/15 02:46:36;;;;;;;13.00;7.03;;;;;;;2.81;100.00;96970.59;5019871;28;20049;-78
2021/03/15 02:49:07;;;;;;;14.77;7.70;;;;;;;2.84;100.00;96980.72;5056176;28;20071;-78
2021/03/15 02:51:37;;;;;;;13.88;7.90;;;;;;;2.85;100.00;96979.63;5037951;28;20037;-79
2021/03/15 02:54:07;;;;;;;14.70;7.10;;;;;;;2.92;100.00;96978.22;5055216;28;20048;-78
2021/03/15 02:56:39;;;;;;;16.98;8.27;;;;;;;2.93;100.00;96973.69;5055107;28;20492;-79
2021/03/15 02:59:06;;;;;;;13.90;7.45;;;;;;;3.01;100.00;96981.88;5054366;28;20044;-78
2021/03/15 03:01:34;;;;;;;15.13;7.35;;;;;;;3.03;100.00;96973.56;5037624;28;20056;-78
2021/03/15 03:04:04;;;;;;;19.27;8.07;;;;;;;3.03;100.00;96978.91;5019628;28;20066;-78
2021/03/15 03:06:32;;;;;;;15.07;7.88;;;;;;;3.05;100.00;96982.09;5035506;28;20048;-78
2021/03/15 03:09:05;;;;;;;12.85;7.35;;;;;;;3.03;100.00;96978.91;5054605;28;20060;-78
2021/03/15 03:11:33;;;;;;;17.00;8.27;;;;;;;3.04;100.00;96972.50;5035481;28;20050;-78
2021/03/15 03:14:01;;;;;;;16.02;8.15;;;;;;;3.08;100.00;96979.66;5019382;28;20464;-78
2021/03/15 03:16:34;;;;;;;13.50;7.65;;;;;;;3.08;100.00;96973.53;5053368;28;20037;-78
2021/03/15 03:19:01;;;;;;;13.63;7.60;;;;;;;3.04;100.00;96975.97;5035572;28;20092;-78
2021/03/15 03:21:29;;;;;;;14.93;8.07;;;;;;;3.04;100.00;96973.31;5034967;28;20099;-78
2021/03/15 03:23:58;;;;;;;16.60;8.50;;;;;;;3.08;100.00;96968.19;5036172;28;20061;-78
2021/03/15 03:26:26;;;;;;;18.80;8.60;;;;;;;3.03;100.00;96969.03;5053634;28;20535;-78
2021/03/15 03:28:53;;;;;;;16.95;8.20;;;;;;;3.03;100.00;96979.72;5035940;28;20416;-77
2021/03/15 03:31:21;;;;;;;20.58;8.70;;;;;;;2.97;100.00;96983.50;5019747;28;20048;-77
2021/03/15 03:33:49;;;;;;;15.80;7.85;;;;;;;2.95;100.00;96975.00;5035307;28;20592;-78
2021/03/15 03:36:15;;;;;;;17.75;7.97;;;;;;;2.90;100.00;96975.03;5053151;28;20057;-78
2021/03/15 03:38:42;;;;;;;16.80;7.97;;;;;;;2.87;100.00;96969.44;5035324;28;20041;-78
2021/03/15 03:41:09;;;;;;;16.73;8.23;;;;;;;2.85;100.00;96967.06;5035097;28;20044;-78
2021/03/15 03:43:36;;;;;;;15.27;8.32;;;;;;;2.84;100.00;96968.13;5035345;28;20053;-78
2021/03/15 03:46:04;;;;;;;17.83;8.45;;;;;;;2.78;100.00;96965.81;5019090;28;20147;-78
2021/03/15 03:48:35;;;;;;;17.35;8.57;;;;;;;2.75;100.00;96961.81;5035913;28;20049;-78
2021/03/15 03:51:07;;;;;;;18.55;8.75;;;;;;;2.65;100.00;96959.25;5034732;28;20077;-78
2021/03/15 03:53:42;;;;;;;16.10;8.77;;;;;;;2.62;100.00;96962.47;5034848;28;20049;-78
2021/03/15 03:56:12;;;;;;;15.27;8.23;;;;;;;2.58;100.00;96968.66;5066310;28;20052;-78
2021/03/15 03:58:47;;;;;;;16.65;8.70;;;;;;;2.45;100.00;96976.22;5022343;28;20060;-78
2021/03/15 04:01:17;;;;;;;17.30;8.88;;;;;;;2.40;100.00;96962.13;5038162;28;20439;-78
2021/03/15 04:03:51;;;;;;;19.42;8.68;;;;;;;2.38;100.00;96964.25;5019282;28;20087;-78
2021/03/15 04:06:18;;;;;;;18.17;9.45;;;;;;;2.33;100.00;96966.97;5037063;28;20045;-78
2021/03/15 04:09:13;;;;;;;18.55;9.63;;;;;;;2.23;100.00;96972.38;5040979;28;20049;-79
2021/03/15 04:11:47;;;;;;;17.38;9.00;;;;;;;2.24;100.00;96977.47;5035579;28;20040;-77
2021/03/15 04:14:24;;;;;;;17.63;9.13;;;;;;;2.22;100.00;96970.81;5051041;28;20045;-77
2021/03/15 04:16:52;;;;;;;20.23;10.05;;;;;;;2.20;100.00;96981.75;5050822;28;20061;-78
2021/03/15 04:19:28;;;;;;;22.27;10.32;;;;;;;2.19;100.00;96976.69;5052642;28;20064;-79
2021/03/15 04:21:58;;;;;;;23.67;9.73;;;;;;;2.12;100.00;96968.16;5052020;28;20041;-78
2021/03/15 04:24:25;;;;;;;20.17;10.32;;;;;;;2.08;100.00;96970.63;5052762;28;20041;-77
2021/03/15 04:26:52;;;;;;;21.20;10.27;;;;;;;2.08;100.00;96969.81;5052827;28;20501;-78
2021/03/15 04:29:19;;;;;;;23.20;10.63;;;;;;;2.06;100.00;96986.13;5018274;28;20079;-78
2021/03/15 04:31:48;;;;;;;17.85;10.30;;;;;;;2.06;100.00;96966.63;5052835;28;20048;-78
2021/03/15 04:34:15;;;;;;;18.95;10.73;;;;;;;2.09;100.00;96961.50;5034979;28;20400;-78
2021/03/15 04:36:42;;;;;;;19.85;10.00;;;;;;;2.09;100.00;96953.50;5057744;28;20468;-77
2021/03/15 04:39:10;;;;;;;19.92;10.80;;;;;;;2.11;100.00;96961.25;5039610;28;20082;-77
2021/03/15 04:41:38;;;;;;;19.15;10.07;;;;;;;2.13;100.00;96959.91;5053035;28;20048;-77
2021/03/15 04:44:05;;;;;;;20.67;9.75;;;;;;;2.14;100.00;96953.47;5017330;28;20068;-78
2021/03/15 04:46:32;;;;;;;19.90;10.00;;;;;;;2.19;100.00;96952.66;5036536;28;20102;-78
2021/03/15 04:49:06;;;;;;;20.45;9.90;;;;;;;2.17;100.00;96952.91;5038514;28;20090;-77
2021/03/15 04:51:35;;;;;;;16.15;9.48;;;;;;;2.19;100.00;96956.13;5054423;28;20040;-77
2021/03/15 04:54:03;;;;;;;19.05;10.07;;;;;;;2.22;100.00;96952.88;5035233;28;20049;-78
2021/03/15 04:56:30;;;;;;;19.33;9.98;;;;;;;2.25;100.00;96952.34;5021183;28;20049;-77
2021/03/15 04:59:01;;;;;;;18.55;9.70;;;;;;;2.27;100.00;96950.19;5036285;28;20049;-78
2021/03/15 05:01:29;;;;;;;18.60;9.63;;;;;;;2.30;100.00;96946.94;5051073;28;20041;-78
2021/03/15 05:03:58;;;;;;;20.08;9.63;;;;;;;2.29;100.00;96940.03;5017702;28;20045;-78
2021/03/15 05:06:25;;;;;;;22.10;10.35;;;;;;;2.30;100.00;96954.16;5017909;28;20060;-78
2021/03/15 05:08:56;;;;;;;21.58;9.90;;;;;;;2.28;100.00;96949.13;5017066;28;20053;-77
2021/03/15 05:11:29;;;;;;;20.23;9.75;;;;;;;2.29;100.00;96948.03;5016952;28;20049;-78
2021/03/15 05:13:58;;;;;;;27.80;10.25;;;;;;;2.29;100.00;96944.56;5033950;28;20044;-78
2021/03/15 05:16:25;;;;;;;22.42;9.70;;;;;;;2.24;100.00;96942.75;5036293;28;20080;-77
2021/03/15 05:18:53;;;;;;;16.50;9.70;;;;;;;2.22;100.00;96942.19;5049992;28;20147;-77
2021/03/15 05:21:24;;;;;;;21.27;9.95;;;;;;;2.18;100.00;96935.84;5013539;28;20037;-77
2021/03/15 05:23:55;;;;;;;20.45;9.73;;;;;;;2.22;100.00;96934.19;5031137;28;20709;-76
2021/03/15 05:26:22;;;;;;;23.55;10.30;;;;;;;2.22;100.00;96930.75;5014101;28;20045;-76
2021/03/15 05:28:49;;;;;;;19.02;9.75;;;;;;;2.24;100.00;96929.41;5015407;28;20055;-77
2021/03/15 05:31:19;;;;;;;19.90;10.00;;;;;;;2.40;100.00;96927.41;5033046;28;20389;-77
2021/03/15 05:33:46;;;;;;;19.05;10.63;;;;;;;2.39;100.00;96931.13;5016713;28;20068;-77
2021/03/15 05:36:14;;;;;;;17.23;9.68;;;;;;;2.52;100.00;96914.47;5032730;28;20111;-78
2021/03/15 05:38:41;;;;;;;19.88;10.10;;;;;;;2.56;100.00;96910.16;5032298;28;20496;-77
2021/03/15 05:41:14;;;;;;;28.95;9.95;;;;;;;2.69;100.00;96916.69;5032164;28;20048;-78
2021/03/15 05:43:55;;;;;;;20.63;9.35;;;;;;;2.73;100.00;96915.06;5050537;28;20534;-78
2021/03/15 05:46:43;;;;;;;18.25;9.57;;;;;;;2.85;100.00;96918.97;5016397;28;20051;-78
2021/03/15 05:49:44;;;;;;;20.15;9.55;;;;;;;2.83;100.00;96923.00;5062835;22;20045;-75
2021/03/15 05:52:36;;;;;;;22.80;10.05;;;;;;;2.79;100.00;96920.06;5025087;28;20045;-76
2021/03/15 05:55:32;;;;;;;22.50;10.93;;;;;;;2.75;100.00;96919.06;5038356;28;20055;-75
2021/03/15 05:58:26;;;;;;;14.68;7.45;;;;;;;2.73;100.00;96917.75;5039891;28;20044;-75
2021/03/15 06:01:26;;;;;;;27.13;10.55;;;;;;;2.71;100.00;96914.56;5038996;28;20060;-75
2021/03/15 06:04:13;;;;;;;25.25;10.95;;;;;;;2.67;100.00;96911.66;5013697;28;20045;-74
2021/03/15 06:06:48;;;;;;;21.65;11.65;;;;;;;2.66;100.00;96912.72;5028219;28;20056;-73
2021/03/15 06:09:28;;;;;;;23.10;11.07;;;;;;;2.59;100.00;96904.25;5011150;28;20057;-75
2021/03/15 06:12:01;;;;;;;26.95;11.65;;;;;;;2.69;100.00;96906.00;5018208;28;20041;-74
2021/03/15 06:14:28;;;;;;;21.60;11.50;;;;;;;2.66;100.00;96918.06;5049585;28;20041;-74
2021/03/15 06:16:55;;;;;;;25.35;12.10;;;;;;;2.67;100.00;96900.97;5049624;28;20044;-74
2021/03/15 06:19:24;;;;;;;24.38;11.63;;;;;;;2.70;100.00;96915.63;5034477;28;20040;-77
2021/03/15 06:21:52;;;;;;;21.90;11.38;;;;;;;2.73;100.00;96909.75;5036130;28;20043;-74
2021/03/15 06:24:19;;;;;;;25.27;11.48;;;;;;;2.75;100.00;96910.25;5050519;28;20680;-74
2021/03/15 06:26:45;;;;;;;23.45;11.48;;;;;;;2.82;100.00;96905.34;5062324;28;20051;-75
2021/03/15 06:29:12;;;;;;;25.70;12.85;;;;;;;2.89;100.00;96916.53;5055086;28;20044;-76
2021/03/15 06:31:42;;;;;;;26.33;12.00;;;;;;;2.88;100.00;96910.38;5072046;28;20036;-75
2021/03/15 06:34:13;;;;;;;24.13;11.70;;;;;;;2.93;100.00;96907.66;5053869;28;20561;-75
2021/03/15 06:36:40;;;;;;;26.60;11.93;;;;;;;2.92;100.00;96914.06;5072296;28;20041;-75
2021/03/15 06:39:10;;;;;;;23.60;11.35;;;;;;;3.00;100.00;96915.31;5026298;28;20053;-75
2021/03/15 06:41:41;;;;;;;27.95;11.25;;;;;;;2.98;100.00;96907.59;5025466;28;20040;-75
2021/03/15 06:44:08;;;;;;;22.08;11.18;;;;;;;3.00;100.00;96907.31;5014909;28;20045;-76
2021/03/15 06:46:35;;;;;;;21.23;11.32;;;;;;;3.06;100.00;96898.97;5014331;28;20041;-76
2021/03/15 06:49:04;;;;;;;22.98;11.55;;;;;;;3.10;100.00;96910.66;5014442;28;20052;-77
2021/03/15 06:51:30;;;;;;;20.50;10.57;;;;;;;3.07;100.00;96905.09;5035574;28;20045;-74
2021/03/15 06:53:57;;;;;;;22.98;11.75;;;;;;;3.19;100.00;96904.69;5061370;28;20045;-73
2021/03/15 06:56:24;;;;;;;24.05;10.23;;;;;;;3.27;100.00;96904.88;5056185;28;20045;-75
2021/03/15 06:58:52;;;;;;;22.05;10.15;;;;;;;3.29;100.00;96885.84;5052567;28;20049;-75
2021/03/15 07:01:24;;;;;;;22.33;9.43;;;;;;;3.38;100.00;96902.88;5047872;28;20048;-78
2021/03/15 07:04:03;;;;;;;19.50;9.90;;;;;;;3.42;100.00;96902.00;5045082;28;20048;-75
2021/03/15 07:06:40;;;;;;;20.52;9.55;;;;;;;3.37;100.00;96904.75;5030985;28;20496;-75
2021/03/15 07:09:14;;;;;;;17.70;9.20;;;;;;;3.41;100.00;96907.63;5048304;28;20439;-76
2021/03/15 07:11:41;;;;;;;16.65;8.98;;;;;;;3.52;100.00;96901.88;5044004;28;21057;-76
2021/03/15 07:14:22;;;;;;;21.90;8.80;;;;;;;3.58;100.00;96900.72;5050467;28;20052;-74
2021/03/15 07:16:59;;;;;;;17.38;8.90;;;;;;;3.66;100.00;96901.97;5033775;28;20458;-76
2021/03/15 07:19:26;;;;;;;17.35;7.88;;;;;;;3.69;100.00;96909.41;5051971;28;20055;-75
2021/03/15 07:21:55;;;;;;;13.27;7.93;;;;;;;3.77;100.00;96908.75;5050993;28;20403;-76
2021/03/15 07:24:29;;;;;;;17.10;8.10;;;;;;;3.83;100.00;96907.59;5051147;28;20045;-75
2021/03/15 07:26:55;;;;;;;21.20;7.18;;;;;;;3.79;100.00;96912.72;5062664;28;20048;-73
2021/03/15 07:29:28;;;;;;;13.35;6.53;;;;;;;3.74;100.00;96910.13;5071184;28;20131;-76
2021/03/15 07:31:54;;;;;;;12.77;6.25;;;;;;;3.72;100.00;96906.16;5070598;28;20064;-74
2021/03/15 07:34:20;;;;;;;13.38;5.75;;;;;;;3.67;100.00;96917.72;5070697;28;20051;-75
2021/03/15 07:37:01;;;;;;;9.75;5.82;;;;;;;3.74;100.00;96915.47;5071252;28;20048;-75
2021/03/15 07:39:32;;;;;;;11.25;5.45;;;;;;;3.82;100.00;96915.94;5065079;28;20065;-74
2021/03/15 07:42:00;;;;;;;15.00;5.90;;;;;;;3.96;100.00;96920.28;5051328;28;20411;-74
2021/03/15 07:44:33;;;;;;;10.90;5.50;;;;;;;3.94;100.00;96918.97;5033544;28;20052;-75
2021/03/15 07:47:04;;;;;;;13.20;4.93;;;;;;;4.01;100.00;96920.19;5050465;28;20381;-75
2021/03/15 07:49:38;;;;;;;9.32;4.80;;;;;;;3.91;100.00;96919.53;5050201;28;20099;-76
2021/03/15 07:52:09;;;;;;;9.07;4.75;;;;;;;3.85;100.00;96924.16;5048562;28;20056;-75
2021/03/15 07:54:40;;;;;;;11.05;5.22;;;;;;;3.81;100.00;96923.16;5050807;28;20048;-74
2021/03/15 07:57:23;;;;;;;12.40;5.05;;;;;;;3.70;100.00;96927.84;5032983;28;20519;-74
2021/03/15 07:59:57;;;;;;;9.52;4.93;;;;;;;3.75;100.00;96926.97;5039691;28;20045;-74
2021/03/15 08:02:27;;;;;;;9.20;4.80;;;;;;;3.67;100.00;96931.09;5052598;28;20417;-75
2021/03/15 08:04:56;;;;;;;7.43;4.03;;;;;;;3.63;100.00;96932.78;5032430;28;20122;-75
2021/03/15 08:07:30;;;;;;;11.35;4.80;;;;;;;3.60;100.00;96930.66;5050064;28;20037;-75
2021/03/15 08:10:01;;;;;;;12.82;5.63;;;;;;;3.65;100.00;96937.81;5050315;28;20152;-76
2021/03/15 08:12:34;;;;;;;10.50;4.60;;;;;;;3.63;100.00;96940.81;5049514;28;20037;-75
2021/03/15 08:15:08;;;;;;;9.23;4.25;;;;;;;3.68;100.00;96935.38;5049593;28;20057;-76
2021/03/15 08:17:42;;;;;;;12.40;5.00;;;;;;;3.74;100.00;96938.78;5020542;28;20091;-75
2021/03/15 08:20:09;;;;;;;12.82;4.93;;;;;;;3.73;100.00;96937.19;5030076;28;20061;-74
2021/03/15 08:22:41;;;;;;;9.52;5.00;;;;;;;3.78;100.00;96934.44;5011816;28;20056;-75
2021/03/15 08:25:09;;;;;;;10.77;4.78;;;;;;;3.87;100.00;96931.94;5011761;28;20120;-74
2021/03/15 08:27:40;;;;;;;15.82;4.88;;;;;;;3.84;100.00;96938.66;5029662;28;20046;-74
2021/03/15 08:30:15;;;;;;;12.02;4.72;;;;;;;3.96;100.00;96928.31;5012476;28;20686;-73
2021/03/15 08:32:42;;;;;;;11.98;4.88;;;;;;;4.03;100.00;96934.09;5007355;28;20057;-74
2021/03/15 08:35:12;;;;;;;6.55;4.03;;;;;;;4.09;100.00;96937.50;5032284;28;20124;-74
2021/03/15 08:37:59;;;;;;;13.45;4.85;;;;;;;4.16;100.00;96932.56;5049431;28;20040;-76
2021/03/15 08:40:43;;;;;;;9.93;4.32;;;;;;;4.20;100.00;96926.34;5020660;28;20140;-73
2021/03/15 08:43:18;;;;;;;17.67;5.15;;;;;;;4.33;100.00;96924.81;5015903;28;20045;-75
2021/03/15 08:45:49;;;;;;;8.27;4.43;;;;;;;4.30;100.00;96928.88;5048930;28;20534;-76
2021/03/15 08:48:17;;;;;;;16.13;4.97;;;;;;;4.36;100.00;96918.88;5049317;28;20047;-75
2021/03/15 08:50:48;;;;;;;11.95;4.72;;;;;;;4.41;100.00;96919.56;5049855;28;20048;-75
2021/03/15 08:53:37;;;;;;;13.20;4.70;;;;;;;4.43;100.00;96916.59;5031222;28;20045;-75
2021/03/15 08:56:04;;;;;;;14.05;5.05;;;;;;;4.50;100.00;96913.53;5048860;28;20068;-74
2021/03/15 08:58:52;;;;;;;9.55;4.40;;;;;;;4.58;100.00;96899.47;5048919;28;20049;-74
2021/03/15 09:01:20;;;;;;;15.80;5.10;;;;;;;4.68;100.00;96901.97;5031193;28;20045;-75
2021/03/15 09:03:51;;;;;;;11.93;4.90;;;;;;;4.70;100.00;96897.09;5049081;28;20048;-75
2021/03/15 09:06:41;;;;;;;9.30;4.45;;;;;;;4.82;100.00;96902.81;5049516;28;20047;-73
2021/03/15 09:09:10;;;;;;;11.65;4.82;;;;;;;4.69;100.00;96907.06;5054491;28;20397;-74
2021/03/15 09:11:39;;;;;;;14.48;5.70;;;;;;;4.85;100.00;96896.84;5038864;28;20048;-74
2021/03/15 09:14:14;;;;;;;12.35;5.82;;;;;;;5.01;100.00;96896.25;5053457;28;20083;-74
2021/03/15 09:16:53;;;;;;;12.90;5.80;;;;;;;5.04;100.00;96893.00;5033161;28;20108;-76
2021/03/15 09:19:28;;;;;;;10.88;5.05;;;;;;;4.95;100.00;96886.75;5050408;28;20085;-75
2021/03/15 09:21:59;;;;;;;11.02;5.75;;;;;;;4.99;100.00;96882.38;5014209;28;20481;-76
2021/03/15 09:24:46;;;;;;;9.38;5.05;;;;;;;5.07;100.00;96885.44;5028025;28;20049;-74
2021/03/15 09:27:42;;;;;;;12.65;5.15;;;;;;;5.06;100.00;96878.50;5028824;28;20048;-74
2021/03/15 09:30:19;;;;;;;15.40;5.43;;;;;;;4.95;100.00;96885.94;5032350;28;20059;-74
2021/03/15 09:33:03;;;;;;;11.43;5.60;;;;;;;4.90;100.00;96880.69;5048291;28;20045;-73
2021/03/15 09:35:36;;;;;;;10.43;5.03;;;;;;;4.87;100.00;96857.13;5031527;28;20464;-75
2021/03/15 09:38:02;;;;;;;8.63;4.38;;;;;;;4.79;100.00;96865.84;5035768;28;20140;-75
2021/03/15 09:40:40;;;;;;;8.00;4.40;;;;;;;4.91;100.00;96883.06;5048832;28;20132;-76
2021/03/15 09:43:27;;;;;;;10.70;5.07;;;;;;;4.73;100.00;96870.50;5048125;28;20037;-76
2021/03/15 09:45:59;;;;;;;12.00;5.60;;;;;;;4.89;100.00;96877.19;5030636;28;20139;-75
2021/03/15 09:48:29;;;;;;;12.30;5.78;;;;;;;5.05;100.00;96869.66;5048454;28;20045;-75
2021/03/15 09:50:57;;;;;;;11.23;5.65;;;;;;;5.01;100.00;96882.84;5048324;28;20135;-76
2021/03/15 09:53:24;;;;;;;14.30;6.18;;;;;;;4.99;100.00;96887.72;5048541;28;20045;-74
2021/03/15 09:56:04;;;;;;;12.10;6.40;;;;;;;5.09;100.00;96888.59;5030685;28;20072;-76
2021/03/15 09:58:30;;;;;;;9.82;5.70;;;;;;;4.87;100.00;96874.03;5016169;28;20073;-75
2021/03/15 10:00:56;;;;;;;10.68;6.50;;;;;;;5.07;100.00;96870.16;5052625;28;20045;-74
2021/03/15 10:03:25;;;;;;;11.02;5.80;;;;;;;5.01;100.00;96874.00;5036641;28;20156;-76
2021/03/15 10:05:57;;;;;;;11.20;5.72;;;;;;;5.08;100.00;96873.63;5052710;28;20037;-77
2021/03/15 10:08:24;;;;;;;12.68;6.10;;;;;;;4.96;100.00;96871.44;5051848;28;20045;-74
2021/03/15 10:10:51;;;;;;;9.90;5.90;;;;;;;5.06;100.00;96865.88;5034700;28;20048;-76
2021/03/15 10:13:17;;;;;;;9.32;5.50;;;;;;;5.09;100.00;96877.88;5034669;28;20092;-76
2021/03/15 10:15:45;;;;;;;14.57;5.90;;;;;;;5.04;100.00;96868.84;5026136;28;20119;-76
2021/03/15 10:18:21;;;;;;;12.65;5.28;;;;;;;4.82;100.00;96871.44;5014622;28;20705;-76
2021/03/15 10:20:49;;;;;;;10.60;4.95;;;;;;;4.70;100.00;96873.78;5036462;28;20044;-75
2021/03/15 10:23:19;;;;;;;11.27;5.55;;;;;;;4.56;100.00;96880.22;5053001;28;20109;-76
2021/03/15 10:25:54;;;;;;;11.77;6.10;;;;;;;4.52;100.00;96880.00;5053046;28;20052;-76
2021/03/15 10:28:22;;;;;;;15.43;7.30;;;;;;;4.47;100.00;96877.41;5051874;28;20040;-75
2021/03/15 10:30:54;;;;;;;13.85;7.00;;;;;;;4.43;100.00;96889.81;5036703;28;20042;-75
2021/03/15 10:33:21;;;;;;;12.32;7.47;;;;;;;4.45;100.00;96876.09;5033781;28;20113;-75
2021/03/15 10:35:54;;;;;;;10.60;6.50;;;;;;;4.29;100.00;96880.91;5033982;28;20045;-73
2021/03/15 10:38:21;;;;;;;13.95;7.32;;;;;;;4.36;100.00;96871.41;4998853;28;20060;-73
2021/03/15 10:40:50;;;;;;;14.05;7.53;;;;;;;4.27;100.00;96883.91;5000857;28;20113;-76
2021/03/15 10:43:17;;;;;;;15.85;7.70;;;;;;;4.37;100.00;96886.41;5042283;28;20036;-75
2021/03/15 10:45:43;;;;;;;15.25;8.65;;;;;;;4.47;100.00;96884.66;5055651;28;20120;-74
2021/03/15 10:48:10;;;;;;;14.10;7.22;;;;;;;4.37;100.00;96877.59;5034206;28;20527;-74
2021/03/15 10:50:39;;;;;;;9.57;6.53;;;;;;;4.32;100.00;96881.16;5043681;28;20280;-74
2021/03/15 10:53:17;;;;;;;9.85;6.22;;;;;;;4.21;100.00;96894.97;5020445;28;20119;-76
2021/03/15 10:55:44;;;;;;;8.73;5.63;;;;;;;4.03;100.00;96893.91;5033967;28;20127;-74
2021/03/15 10:58:20;;;;;;;12.07;6.32;;;;;;;3.79;100.00;96899.34;5050993;28;20041;-73
2021/03/15 11:00:48;;;;;;;13.00;6.72;;;;;;;3.64;100.00;96898.75;5051630;28;20056;-74
2021/03/15 11:03:20;;;;;;;12.40;7.05;;;;;;;3.60;100.00;96906.59;5033442;28;20045;-75
2021/03/15 11:06:00;;;;;;;12.93;6.57;;;;;;;3.70;100.00;96900.28;5051090;28;20051;-75
2021/03/15 11:08:27;;;;;;;12.43;7.10;;;;;;;3.81;100.00;96898.28;5050764;28;20483;-76
2021/03/15 11:10:54;;;;;;;10.73;6.45;;;;;;;3.88;100.00;96885.31;5033083;28;20510;-73
2021/03/15 11:13:21;;;;;;;11.05;6.10;;;;;;;3.93;100.00;96907.47;5051054;28;20041;-74
2021/03/15 11:15:47;;;;;;;12.13;6.57;;;;;;;4.00;100.00;96899.06;5050605;28;20500;-73
2021/03/15 11:18:20;;;;;;;10.38;6.18;;;;;;;3.98;100.00;96895.88;5050994;28;20041;-75
2021/03/15 11:20:56;;;;;;;13.38;6.97;;;;;;;4.03;100.00;96893.13;5032481;28;20066;-74
2021/03/15 11:23:31;;;;;;;8.35;5.18;;;;;;;4.02;100.00;96897.69;5050361;28;20094;-76
2021/03/15 11:26:05;;;;;;;9.27;5.85;;;;;;;4.21;100.00;96892.31;5048150;28;20373;-73
2021/03/15 11:28:34;;;;;;;12.90;7.30;;;;;;;4.50;100.00;96892.09;5044938;28;20052;-73
2021/03/15 11:31:00;;;;;;;12.30;6.20;;;;;;;4.54;100.00;96896.59;5052041;28;20098;-75
2021/03/15 11:33:28;;;;;;;12.60;7.03;;;;;;;4.85;100.00;96886.91;5071968;28;20036;-74
2021/03/15 11:36:00;;;;;;;14.60;7.10;;;;;;;4.92;100.00;96889.22;5053470;28;20040;-74
2021/03/15 11:38:27;;;;;;;13.85;6.20;;;;;;;4.55;100.00;96889.34;5070740;28;20051;-75
2021/03/15 11:40:56;;;;;;;9.02;5.93;;;;;;;4.37;100.00;96875.69;5070858;28;20051;-76